Time;durP1;ratioP1;P1;durP2;ratioP2;P2;SDS_P1;SDS_P2;PMS_P1;PMS_P2;Temp;Humidity;BMP_temperature;BMP_pressure;BME280_temperature;BME280_humidity;BME280_pressure;Samples;Min_cycle;Max_cycle;Signal;HPM_P1;HPM_P2
2023/10/15 00:00:12;;;;;;;;;;;;;;;20.90;29.48;97638.94;4938069;29;1979;-75
2023/10/15 00:02:37;;;;;;;;;;;;;;;20.64;29.59;97631.63;4919201;28;1020;-75
2023/10/15 00:05:05;;;;;;;;;;;;;;;20.59;29.67;97620.88;4937395;29;974;-76
2023/10/15 00:07:31;;;;;;;;;;;;;;;20.85;29.14;97630.22;4925609;29;911;-76
2023/10/15 00:09:56;;;;;;;;;;;;;;;20.77;29.34;97632.44;4925228;29;1141;-74
2023/10/15 00:12:22;;;;;;;;;;;;;;;20.87;29.45;97624.88;4925168;29;1141;-75
2023/10/15 00:14:47;;;;;;;;;;;;;;;20.87;29.22;97616.41;4940748;29;1140;-75
2023/10/15 00:17:13;;;;;;;;;;;;;;;20.88;29.17;97612.31;4956636;29;857;-75
2023/10/15 00:19:39;;;;;;;;;;;;;;;20.97;29.11;97609.63;4940563;29;1033;-75
2023/10/15 00:22:07;;;;;;;;;;;;;;;20.93;29.32;97614.59;4958089;28;1982;-75
2023/10/15 00:24:33;;;;;;;;;;;;;;;20.68;29.54;97613.31;4959984;28;899;-76
2023/10/15 00:26:58;;;;;;;;;;;;;;;20.73;29.42;97612.78;4943875;28;1120;-75
2023/10/15 00:29:25;;;;;;;;;;;;;;;21.01;29.07;97619.59;4960558;28;791;-75
2023/10/15 00:31:50;;;;;;;;;;;;;;;20.67;29.70;97608.88;4943852;28;1109;-74
2023/10/15 00:34:17;;;;;;;;;;;;;;;20.58;29.68;97605.94;4959750;28;1132;-75
2023/10/15 00:36:43;;;;;;;;;;;;;;;20.70;29.69;97601.56;5001187;28;1223;-75
2023/10/15 00:39:21;;;;;;;;;;;;;;;20.65;29.50;97605.72;5036726;28;747;-75
2023/10/15 00:41:47;;;;;;;;;;;;;;;20.93;29.21;97594.81;5004191;28;1977;-75
2023/10/15 00:44:14;;;;;;;;;;;;;;;20.92;29.03;97590.41;5003035;28;822;-75
2023/10/15 00:46:39;;;;;;;;;;;;;;;20.72;29.34;97587.75;4978665;28;1132;-75
2023/10/15 00:49:12;;;;;;;;;;;;;;;20.62;29.77;97584.00;4962933;28;1126;-75
2023/10/15 00:51:43;;;;;;;;;;;;;;;20.99;28.94;97576.06;4994963;28;766;-75
2023/10/15 00:54:15;;;;;;;;;;;;;;;20.80;29.49;97567.31;4994550;28;833;-75
2023/10/15 00:56:41;;;;;;;;;;;;;;;20.91;29.18;97566.19;4979062;28;933;-75
2023/10/15 01:01:38;;;;;;;;;;;;;;;20.63;29.36;97560.16;4962437;28;1910;-75
2023/10/15 01:04:06;;;;;;;;;;;;;;;20.68;29.60;97553.97;4963339;28;1242;-76
2023/10/15 01:09:09;;;;;;;;;;;;;;;20.70;29.42;97545.03;4978214;28;1220;-76
2023/10/15 01:11:38;;;;;;;;;;;;;;;20.67;29.61;97546.69;4978627;28;839;-75
2023/10/15 01:14:04;;;;;;;;;;;;;;;20.65;29.28;97540.72;4962361;28;1195;-75
2023/10/15 01:16:31;;;;;;;;;;;;;;;20.68;29.30;97542.66;4979317;28;791;-75
2023/10/15 01:24:19;;;;;;;;;;;;;;;20.84;29.05;97550.25;4998853;28;1297;-75
2023/10/15 01:26:51;;;;;;;;;;;;;;;20.84;29.19;97552.28;4981713;28;831;-75
2023/10/15 01:29:23;;;;;;;;;;;;;;;20.49;29.83;97546.44;4997628;28;1031;-75
2023/10/15 01:31:55;;;;;;;;;;;;;;;20.55;29.62;97548.25;4998220;28;1123;-74
2023/10/15 01:34:21;;;;;;;;;;;;;;;20.76;29.47;97544.00;4974027;28;1250;-75
2023/10/15 01:36:47;;;;;;;;;;;;;;;20.90;29.08;97547.66;4969786;28;1070;-75
2023/10/15 01:39:21;;;;;;;;;;;;;;;20.66;29.23;97545.13;4977668;28;824;-75
2023/10/15 01:41:50;;;;;;;;;;;;;;;20.54;29.41;97548.72;4979251;28;1993;-76
2023/10/15 01:44:19;;;;;;;;;;;;;;;20.92;28.95;97556.47;4962150;28;1188;-75
2023/10/15 01:49:31;;;;;;;;;;;;;;;21.34;29.34;97554.34;4978113;28;927;-75
2023/10/15 01:52:27;;;;;;;;;;;;;;;21.64;30.06;97544.44;4993751;28;887;-75
2023/10/15 01:54:53;;;;;;;;;;;;;;;21.16;30.99;97542.78;5000535;28;896;-75
2023/10/15 01:57:19;;;;;;;;;;;;;;;20.94;31.18;97548.34;4997506;28;802;-75
2023/10/15 01:59:47;;;;;;;;;;;;;;;20.97;31.08;97547.41;4980805;28;1246;-75
2023/10/15 02:02:15;;;;;;;;;;;;;;;20.79;30.95;97543.13;4981225;28;1989;-75
2023/10/15 02:04:46;;;;;;;;;;;;;;;21.01;30.54;97536.78;5004655;28;944;-75
2023/10/15 02:07:15;;;;;;;;;;;;;;;20.78;30.97;97541.53;5018323;28;1225;-75
2023/10/15 02:09:43;;;;;;;;;;;;;;;20.79;30.94;97531.81;5033262;28;906;-75
2023/10/15 02:12:10;;;;;;;;;;;;;;;20.58;31.10;97526.81;5000671;28;1575;-75
2023/10/15 02:14:36;;;;;;;;;;;;;;;20.81;30.66;97526.47;5016675;28;899;-75
2023/10/15 02:17:05;;;;;;;;;;;;;;;20.92;30.41;97523.31;5016970;28;1272;-75
2023/10/15 02:19:34;;;;;;;;;;;;;;;20.76;30.43;97518.56;5016348;28;1232;-75
2023/10/15 02:22:15;;;;;;;;;;;;;;;20.68;30.41;97514.38;5016828;28;1918;-75
2023/10/15 02:24:46;;;;;;;;;;;;;;;20.87;30.08;97520.25;4984655;28;1196;-75
2023/10/15 02:27:17;;;;;;;;;;;;;;;20.85;30.15;97522.75;5000733;28;1265;-75
2023/10/15 02:29:49;;;;;;;;;;;;;;;20.89;29.66;97517.78;5016825;28;846;-75
2023/10/15 02:32:21;;;;;;;;;;;;;;;20.56;30.37;97509.47;4997349;28;1034;-76
2023/10/15 02:34:52;;;;;;;;;;;;;;;20.92;29.71;97525.34;4996703;28;1119;-75
2023/10/15 02:37:18;;;;;;;;;;;;;;;20.83;29.65;97519.56;5012878;28;1065;-75
2023/10/15 02:39:49;;;;;;;;;;;;;;;20.79;29.57;97520.50;4994950;28;1159;-74
2023/10/15 02:42:16;;;;;;;;;;;;;;;20.68;29.61;97525.69;4978102;28;1894;-76
2023/10/15 02:44:41;;;;;;;;;;;;;;;20.48;30.02;97522.25;4993412;28;1306;-75
2023/10/15 02:47:10;;;;;;;;;;;;;;;20.48;29.90;97522.25;4980392;28;957;-75
2023/10/15 02:49:49;;;;;;;;;;;;;;;20.85;29.83;97534.06;4977423;28;1337;-74
2023/10/15 02:52:18;;;;;;;;;;;;;;;21.31;29.16;97522.09;4963379;28;787;-75
2023/10/15 02:54:45;;;;;;;;;;;;;;;21.52;29.29;97516.97;4977804;28;896;-75
2023/10/15 02:57:15;;;;;;;;;;;;;;;21.43;29.83;97517.66;4961612;28;1014;-75
2023/10/15 02:59:50;;;;;;;;;;;;;;;21.24;30.01;97511.00;4962153;28;1258;-76
2023/10/15 03:02:19;;;;;;;;;;;;;;;20.72;30.40;97509.38;4962611;28;1914;-75
2023/10/15 03:04:54;;;;;;;;;;;;;;;20.79;30.21;97499.91;4961484;28;1215;-75
2023/10/15 03:10:12;;;;;;;;;;;;;;;20.95;29.87;97502.63;4985605;28;987;-75
2023/10/15 03:12:44;;;;;;;;;;;;;;;20.94;29.75;97503.09;4996976;28;1271;-75
2023/10/15 03:15:14;;;;;;;;;;;;;;;20.87;29.55;97497.63;4964685;28;1175;-74
2023/10/15 03:17:43;;;;;;;;;;;;;;;20.71;30.06;97490.84;4964873;28;1163;-75
2023/10/15 03:22:44;;;;;;;;;;;;;;;20.65;30.03;97492.66;4962172;28;874;-75
2023/10/15 03:25:16;;;;;;;;;;;;;;;20.56;29.93;97486.88;4960807;28;870;-75
2023/10/15 03:27:46;;;;;;;;;;;;;;;20.78;29.53;97485.00;4962340;28;1120;-75
2023/10/15 03:30:13;;;;;;;;;;;;;;;20.62;29.89;97487.88;4944947;28;840;-75
2023/10/15 03:32:44;;;;;;;;;;;;;;;20.24;30.21;97480.13;4957353;28;1063;-76
2023/10/15 03:35:32;;;;;;;;;;;;;;;20.48;30.10;97483.47;4957842;29;966;-75
2023/10/15 03:38:14;;;;;;;;;;;;;;;20.33;30.12;97484.34;4941396;29;1244;-76
2023/10/15 03:40:46;;;;;;;;;;;;;;;20.53;29.67;97482.94;4943460;29;1910;-75
2023/10/15 03:43:20;;;;;;;;;;;;;;;20.64;29.69;97484.63;4942409;29;974;-75
2023/10/15 03:45:53;;;;;;;;;;;;;;;20.81;29.13;97489.72;4957010;29;866;-75
2023/10/15 03:48:21;;;;;;;;;;;;;;;20.77;29.25;97489.03;5013518;28;1086;-75
2023/10/15 03:50:53;;;;;;;;;;;;;;;20.81;28.99;97492.53;4983701;28;1218;-75
2023/10/15 03:53:28;;;;;;;;;;;;;;;20.87;29.06;97486.31;5000836;28;928;-75
2023/10/15 03:55:57;;;;;;;;;;;;;;;21.28;28.90;97486.19;5015584;28;988;-75
2023/10/15 03:58:23;;;;;;;;;;;;;;;21.52;28.61;97485.81;4999822;28;1269;-75
2023/10/15 04:00:54;;;;;;;;;;;;;;;21.46;29.11;97476.34;4999454;28;1985;-76
2023/10/15 04:03:28;;;;;;;;;;;;;;;21.45;28.83;97469.88;5008124;28;958;-75
2023/10/15 04:05:54;;;;;;;;;;;;;;;20.93;29.84;97473.19;5020419;28;855;-74
2023/10/15 04:08:19;;;;;;;;;;;;;;;21.00;29.28;97472.97;5003111;28;1197;-75
2023/10/15 04:10:57;;;;;;;;;;;;;;;20.69;29.82;97476.38;4979792;28;993;-75
2023/10/15 04:13:22;;;;;;;;;;;;;;;20.80;29.56;97470.38;4996091;28;915;-75
2023/10/15 04:15:49;;;;;;;;;;;;;;;20.51;29.83;97467.66;4979956;28;915;-76
2023/10/15 04:18:14;;;;;;;;;;;;;;;20.98;29.24;97469.81;4964129;28;1114;-76
2023/10/15 04:20:43;;;;;;;;;;;;;;;20.84;29.63;97470.28;4957113;28;1914;-75
2023/10/15 04:23:24;;;;;;;;;;;;;;;20.75;29.74;97470.94;4957454;29;976;-75
2023/10/15 04:25:50;;;;;;;;;;;;;;;20.59;29.78;97471.06;4957475;29;1033;-75
2023/10/15 04:28:18;;;;;;;;;;;;;;;20.59;30.00;97466.19;4957567;28;973;-74
2023/10/15 04:30:46;;;;;;;;;;;;;;;20.53;29.87;97471.63;4941003;29;1024;-75
2023/10/15 04:33:13;;;;;;;;;;;;;;;20.88;29.38;97468.09;4957228;29;915;-75
2023/10/15 04:35:41;;;;;;;;;;;;;;;20.70;29.34;97466.66;4937711;29;1115;-75
2023/10/15 04:38:07;;;;;;;;;;;;;;;20.60;29.57;97473.44;4937787;29;984;-75
2023/10/15 04:40:47;;;;;;;;;;;;;;;20.68;29.30;97469.16;4937506;29;1906;-75
2023/10/15 04:43:13;;;;;;;;;;;;;;;20.81;29.08;97472.75;4899709;29;965;-76
2023/10/15 04:45:41;;;;;;;;;;;;;;;20.67;29.48;97461.88;4900062;29;1049;-75
2023/10/15 04:48:14;;;;;;;;;;;;;;;20.72;29.14;97463.34;4908682;29;1108;-75
2023/10/15 04:50:40;;;;;;;;;;;;;;;20.51;29.70;97464.81;4920382;29;1315;-75
2023/10/15 04:53:12;;;;;;;;;;;;;;;20.66;29.34;97460.31;4937357;29;1117;-75
2023/10/15 04:55:41;;;;;;;;;;;;;;;20.72;29.27;97457.72;4937746;29;985;-76
2023/10/15 04:58:06;;;;;;;;;;;;;;;20.36;30.02;97458.00;4937440;29;973;-76
2023/10/15 05:00:33;;;;;;;;;;;;;;;20.42;29.58;97453.38;4921278;29;1915;-76
2023/10/15 05:02:58;;;;;;;;;;;;;;;21.07;29.27;97464.25;4937582;29;986;-76
2023/10/15 05:05:24;;;;;;;;;;;;;;;21.31;28.85;97459.84;4937632;29;1026;-76
2023/10/15 05:07:50;;;;;;;;;;;;;;;21.45;28.76;97463.41;4955494;28;931;-77
2023/10/15 05:10:15;;;;;;;;;;;;;;;21.41;29.12;97457.09;4956302;29;977;-76
2023/10/15 05:12:40;;;;;;;;;;;;;;;21.34;29.23;97458.13;4940399;29;989;-77
2023/10/15 05:15:13;;;;;;;;;;;;;;;20.86;29.84;97450.81;4996780;28;855;-76
2023/10/15 05:17:39;;;;;;;;;;;;;;;20.75;29.78;97457.59;5014888;28;1016;-76
2023/10/15 05:20:11;;;;;;;;;;;;;;;20.84;29.56;97444.84;5014807;28;1976;-76
2023/10/15 05:22:37;;;;;;;;;;;;;;;20.78;29.64;97451.06;4982403;28;1183;-76
2023/10/15 05:25:04;;;;;;;;;;;;;;;21.00;29.20;97453.19;5014909;28;900;-76
2023/10/15 05:27:29;;;;;;;;;;;;;;;21.06;29.06;97448.53;4998415;28;964;-76
2023/10/15 05:29:55;;;;;;;;;;;;;;;20.62;29.83;97448.31;5012237;28;1096;-76
2023/10/15 05:32:22;;;;;;;;;;;;;;;20.86;29.61;97450.81;5015392;28;1348;-76
2023/10/15 05:34:48;;;;;;;;;;;;;;;20.67;29.56;97446.97;4998981;28;859;-76
2023/10/15 05:37:13;;;;;;;;;;;;;;;20.64;29.92;97451.50;5031651;28;1159;-76
2023/10/15 05:39:41;;;;;;;;;;;;;;;20.52;29.90;97455.91;4985352;28;1630;-76
2023/10/15 05:42:07;;;;;;;;;;;;;;;20.45;29.98;97444.00;5002439;28;1985;-76
2023/10/15 05:44:34;;;;;;;;;;;;;;;20.73;29.45;97457.28;5018805;28;965;-76
2023/10/15 05:47:00;;;;;;;;;;;;;;;20.95;29.28;97453.75;5002453;28;1170;-76
2023/10/15 05:49:25;;;;;;;;;;;;;;;20.60;29.51;97453.63;5018739;28;920;-76
2023/10/15 05:51:51;;;;;;;;;;;;;;;20.56;29.85;97461.44;5036498;28;869;-75
2023/10/15 05:54:17;;;;;;;;;;;;;;;20.40;29.94;97453.81;4986008;28;1572;-76
2023/10/15 05:56:42;;;;;;;;;;;;;;;20.33;30.02;97441.94;5002340;28;943;-76
2023/10/15 05:59:08;;;;;;;;;;;;;;;20.46;30.26;97445.56;5002318;28;1092;-76
2023/10/15 06:01:33;;;;;;;;;;;;;;;21.12;29.27;97445.91;5001970;28;1906;-76
2023/10/15 06:03:59;;;;;;;;;;;;;;;21.37;28.83;97454.38;5006242;28;1553;-76
2023/10/15 06:06:25;;;;;;;;;;;;;;;21.19;29.41;97445.66;5022164;28;1715;-76
2023/10/15 06:08:53;;;;;;;;;;;;;;;20.89;29.60;97438.59;4999353;28;1521;-76
2023/10/15 06:11:19;;;;;;;;;;;;;;;20.85;29.63;97435.09;5002657;28;1506;-76
2023/10/15 06:13:44;;;;;;;;;;;;;;;20.79;29.62;97446.97;5006024;28;1599;-77
2023/10/15 06:16:10;;;;;;;;;;;;;;;20.73;29.58;97442.34;5020395;28;1553;-77
2023/10/15 06:18:35;;;;;;;;;;;;;;;20.68;29.54;97443.72;5001264;28;1322;-75
2023/10/15 06:21:01;;;;;;;;;;;;;;;20.67;29.87;97444.94;5021719;28;1914;-76
2023/10/15 06:23:27;;;;;;;;;;;;;;;20.86;29.63;97434.63;5039823;28;946;-77
2023/10/15 06:25:52;;;;;;;;;;;;;;;20.61;29.84;97446.75;5040422;28;866;-75
2023/10/15 06:28:20;;;;;;;;;;;;;;;20.94;29.57;97450.13;5022326;28;1245;-76
2023/10/15 06:30:45;;;;;;;;;;;;;;;20.65;29.85;97452.28;5005959;28;1538;-76
2023/10/15 06:33:11;;;;;;;;;;;;;;;20.75;29.63;97440.63;5006056;28;1222;-76
2023/10/15 06:35:40;;;;;;;;;;;;;;;20.46;29.87;97445.56;5022259;28;1194;-76
2023/10/15 06:38:05;;;;;;;;;;;;;;;20.84;29.54;97448.44;5005624;28;880;-76
2023/10/15 06:40:31;;;;;;;;;;;;;;;20.58;29.57;97452.53;5022218;28;1988;-77
2023/10/15 06:43:00;;;;;;;;;;;;;;;20.72;29.49;97435.09;5021977;28;1748;-76
2023/10/15 06:45:26;;;;;;;;;;;;;;;20.47;29.78;97441.56;5022073;28;859;-76
2023/10/15 06:47:55;;;;;;;;;;;;;;;20.50;29.78;97446.28;5006107;28;940;-76
2023/10/15 06:50:20;;;;;;;;;;;;;;;20.69;29.59;97436.81;4981502;28;941;-76
2023/10/15 06:52:46;;;;;;;;;;;;;;;21.32;28.88;97443.66;4924553;29;1106;-77
2023/10/15 06:55:13;;;;;;;;;;;;;;;21.56;28.87;97444.03;4939715;29;1032;-77
2023/10/15 06:57:39;;;;;;;;;;;;;;;21.42;28.92;97444.53;4939583;29;898;-77
2023/10/15 07:00:07;;;;;;;;;;;;;;;20.94;29.51;97438.81;4939572;29;1910;-76
2023/10/15 07:02:33;;;;;;;;;;;;;;;20.90;29.63;97434.53;4923844;29;997;-77
2023/10/15 07:05:00;;;;;;;;;;;;;;;20.93;29.30;97439.25;4923798;29;935;-77
2023/10/15 07:07:26;;;;;;;;;;;;;;;20.87;29.59;97427.72;4924000;29;1324;-77
2023/10/15 07:09:52;;;;;;;;;;;;;;;20.46;30.08;97428.63;4940137;29;960;-77
2023/10/15 07:12:17;;;;;;;;;;;;;;;20.42;30.12;97427.97;4923840;29;1131;-76
2023/10/15 07:14:43;;;;;;;;;;;;;;;20.38;30.15;97427.25;4939536;29;1039;-77
2023/10/15 07:17:09;;;;;;;;;;;;;;;20.54;30.10;97430.00;4920691;29;1586;-76
2023/10/15 07:19:35;;;;;;;;;;;;;;;20.64;29.96;97411.94;4920860;29;1091;-77
2023/10/15 07:22:01;;;;;;;;;;;;;;;20.65;29.77;97418.38;4931816;29;1907;-76
2023/10/15 07:24:27;;;;;;;;;;;;;;;20.47;29.99;97413.28;4937711;28;1141;-76
2023/10/15 07:26:52;;;;;;;;;;;;;;;20.40;30.29;97419.13;4961881;28;952;-76
2023/10/15 07:29:18;;;;;;;;;;;;;;;20.67;29.72;97419.47;4977485;28;951;-76
2023/10/15 07:31:44;;;;;;;;;;;;;;;20.64;29.83;97414.75;4961117;28;994;-77
2023/10/15 07:34:10;;;;;;;;;;;;;;;20.69;29.74;97411.34;4961827;28;982;-75
2023/10/15 07:36:36;;;;;;;;;;;;;;;20.80;29.69;97414.63;4987089;28;1093;-75
2023/10/15 07:39:06;;;;;;;;;;;;;;;20.62;29.78;97405.91;4996947;28;1094;-76
2023/10/15 07:41:32;;;;;;;;;;;;;;;20.48;30.00;97415.66;4996838;28;1971;-76
2023/10/15 07:44:00;;;;;;;;;;;;;;;20.75;29.67;97411.56;4980638;28;978;-75
2023/10/15 07:46:28;;;;;;;;;;;;;;;20.69;29.76;97408.53;4980920;28;1070;-75
2023/10/15 07:48:54;;;;;;;;;;;;;;;20.50;29.74;97410.34;5012715;28;1014;-76
2023/10/15 07:51:19;;;;;;;;;;;;;;;20.44;29.87;97408.50;5000202;28;1009;-76
2023/10/15 07:53:45;;;;;;;;;;;;;;;21.10;29.52;97409.63;5012766;28;1003;-76
2023/10/15 07:56:14;;;;;;;;;;;;;;;21.21;29.51;97407.19;5020738;28;1077;-76
2023/10/15 07:58:40;;;;;;;;;;;;;;;21.39;29.41;97400.94;5038249;28;930;-75
2023/10/15 08:01:05;;;;;;;;;;;;;;;21.10;29.57;97398.28;5037444;28;1930;-76
2023/10/15 08:03:32;;;;;;;;;;;;;;;21.07;29.37;97399.19;5020467;28;959;-76
2023/10/15 08:06:00;;;;;;;;;;;;;;;20.86;29.57;97399.91;5020749;28;913;-76
2023/10/15 08:08:25;;;;;;;;;;;;;;;20.66;29.88;97403.78;5036753;28;850;-76
2023/10/15 08:10:52;;;;;;;;;;;;;;;20.83;29.88;97401.63;5037055;28;914;-77
2023/10/15 08:13:18;;;;;;;;;;;;;;;20.79;29.60;97396.09;5036812;28;865;-76
2023/10/15 08:15:44;;;;;;;;;;;;;;;21.00;29.29;97388.13;5038720;28;793;-76
2023/10/15 08:18:09;;;;;;;;;;;;;;;20.87;29.40;97396.63;5037913;28;973;-76
2023/10/15 08:20:35;;;;;;;;;;;;;;;20.95;29.38;97400.03;5055598;28;1992;-77
2023/10/15 08:23:01;;;;;;;;;;;;;;;20.98;29.37;97396.25;5055927;28;942;-76
2023/10/15 08:25:26;;;;;;;;;;;;;;;20.57;30.19;97383.88;5027439;28;1410;-76
2023/10/15 08:27:52;;;;;;;;;;;;;;;20.40;30.23;97379.56;5007773;28;1559;-76
2023/10/15 08:30:17;;;;;;;;;;;;;;;20.72;29.90;97379.34;5036143;28;1571;-76
2023/10/15 08:32:44;;;;;;;;;;;;;;;20.71;29.90;97377.75;5032696;28;1679;-76
2023/10/15 08:35:13;;;;;;;;;;;;;;;20.58;30.09;97385.47;5021735;28;1413;-76
2023/10/15 08:37:39;;;;;;;;;;;;;;;20.65;29.72;97379.59;5007316;28;1558;-77
2023/10/15 08:40:05;;;;;;;;;;;;;;;20.71;29.87;97376.97;5035234;28;1760;-76
2023/10/15 08:42:34;;;;;;;;;;;;;;;20.40;30.15;97374.69;5035089;28;1902;-75
2023/10/15 08:45:04;;;;;;;;;;;;;;;20.49;30.13;97374.06;5024792;28;1312;-76
2023/10/15 08:47:29;;;;;;;;;;;;;;;20.49;30.03;97371.22;5019197;28;957;-76
2023/10/15 08:49:55;;;;;;;;;;;;;;;20.61;29.67;97367.59;5018853;28;1111;-76
2023/10/15 08:52:20;;;;;;;;;;;;;;;20.47;29.92;97373.72;5018883;28;1025;-76
2023/10/15 08:54:46;;;;;;;;;;;;;;;20.67;29.71;97365.78;5002393;28;1344;-76
2023/10/15 08:57:11;;;;;;;;;;;;;;;20.42;30.25;97374.25;5002284;28;946;-76
2023/10/15 08:59:37;;;;;;;;;;;;;;;20.59;30.16;97378.56;5037515;28;911;-76
2023/10/15 09:02:06;;;;;;;;;;;;;;;20.62;29.85;97368.38;5019374;28;1918;-76
2023/10/15 09:04:32;;;;;;;;;;;;;;;20.46;30.17;97372.09;4995460;28;975;-76
2023/10/15 09:07:01;;;;;;;;;;;;;;;20.30;30.52;97365.31;4972522;28;970;-76
2023/10/15 09:09:29;;;;;;;;;;;;;;;20.39;30.34;97361.03;4972494;28;1072;-76
2023/10/15 09:11:54;;;;;;;;;;;;;;;20.65;29.86;97354.13;4972866;28;848;-75
2023/10/15 09:14:39;;;;;;;;;;;;;;;20.47;30.02;97353.94;4956189;29;1023;-76
2023/10/15 09:17:09;;;;;;;;;;;;;;;20.46;30.05;97343.84;4956678;29;952;-76
2023/10/15 09:19:35;;;;;;;;;;;;;;;20.17;30.60;97344.75;4955715;28;903;-76
2023/10/15 09:22:01;;;;;;;;;;;;;;;20.61;30.15;97356.28;4958902;28;1923;-76
2023/10/15 09:24:27;;;;;;;;;;;;;;;20.65;29.83;97351.31;4955980;29;1132;-76
2023/10/15 09:26:53;;;;;;;;;;;;;;;20.63;30.12;97353.81;4956493;29;1060;-76
2023/10/15 09:29:19;;;;;;;;;;;;;;;20.73;29.68;97349.84;4955913;29;1024;-76
2023/10/15 09:31:45;;;;;;;;;;;;;;;20.58;30.23;97345.91;4956330;29;963;-76
2023/10/15 09:34:11;;;;;;;;;;;;;;;20.75;29.88;97338.06;4956048;29;1029;-76
2023/10/15 09:36:38;;;;;;;;;;;;;;;20.67;29.75;97337.50;4953447;28;1249;-76
2023/10/15 09:39:12;;;;;;;;;;;;;;;20.59;29.77;97335.38;4952552;28;944;-76
2023/10/15 09:41:40;;;;;;;;;;;;;;;20.66;29.98;97330.28;4936923;29;1987;-76
2023/10/15 09:44:06;;;;;;;;;;;;;;;20.38;30.20;97328.38;4952636;29;922;-77
2023/10/15 09:46:32;;;;;;;;;;;;;;;20.81;29.54;97320.06;4952525;28;1050;-75
2023/10/15 09:48:59;;;;;;;;;;;;;;;20.81;29.44;97320.06;4920628;29;994;-76
2023/10/15 09:51:24;;;;;;;;;;;;;;;20.62;29.75;97318.28;4936727;29;1093;-76
2023/10/15 09:53:50;;;;;;;;;;;;;;;20.49;30.43;97314.72;4972108;28;1324;-76
2023/10/15 09:56:17;;;;;;;;;;;;;;;20.63;29.79;97307.81;4978107;28;900;-76
2023/10/15 09:58:43;;;;;;;;;;;;;;;20.63;29.88;97302.94;4994846;28;987;-75
2023/10/15 10:01:16;;;;;;;;;;;;;;;20.75;29.75;97310.59;4982411;28;1907;-77
2023/10/15 10:03:48;;;;;;;;;;;;;;;20.46;30.16;97304.28;4974788;28;974;-76
2023/10/15 10:06:15;;;;;;;;;;;;;;;20.34;30.56;97305.88;4975063;28;992;-75
2023/10/15 10:08:49;;;;;;;;;;;;;;;20.42;30.41;97310.06;4974820;28;929;-76
2023/10/15 10:11:14;;;;;;;;;;;;;;;20.40;30.47;97300.44;4958616;28;948;-77
2023/10/15 10:13:40;;;;;;;;;;;;;;;20.57;30.08;97304.72;4974866;28;983;-77
2023/10/15 10:16:07;;;;;;;;;;;;;;;20.58;30.19;97292.22;4958775;28;1228;-76
2023/10/15 10:18:37;;;;;;;;;;;;;;;20.50;30.24;97294.47;4942660;28;1181;-76
2023/10/15 10:21:11;;;;;;;;;;;;;;;21.12;29.96;97279.81;4958668;28;1957;-76
2023/10/15 10:23:37;;;;;;;;;;;;;;;21.35;29.89;97281.44;4974587;28;991;-77
2023/10/15 10:26:09;;;;;;;;;;;;;;;21.49;29.93;97282.94;4974837;28;1127;-76
2023/10/15 10:28:35;;;;;;;;;;;;;;;21.56;29.76;97283.47;4974568;28;971;-76
2023/10/15 10:31:01;;;;;;;;;;;;;;;21.41;29.86;97281.63;4942578;28;1117;-77
2023/10/15 10:33:40;;;;;;;;;;;;;;;21.17;30.24;97284.88;4976065;28;1107;-76
2023/10/15 10:36:14;;;;;;;;;;;;;;;20.81;30.65;97269.19;4997393;28;1287;-77
2023/10/15 10:38:41;;;;;;;;;;;;;;;20.65;30.87;97266.50;5013904;28;1105;-76
2023/10/15 10:41:15;;;;;;;;;;;;;;;20.72;30.86;97260.59;4997443;28;1906;-76
2023/10/15 10:43:43;;;;;;;;;;;;;;;21.00;30.16;97260.88;5013939;28;1122;-76
2023/10/15 10:46:36;;;;;;;;;;;;;;;20.68;30.80;97262.78;5013765;28;1025;-75
2023/10/15 10:49:05;;;;;;;;;;;;;;;20.70;30.54;97254.63;4995582;28;1332;-75
2023/10/15 10:51:30;;;;;;;;;;;;;;;20.60;30.90;97247.31;5013817;28;1511;-76
2023/10/15 10:53:56;;;;;;;;;;;;;;;20.52;30.94;97246.78;5019050;28;1289;-76
2023/10/15 10:56:42;;;;;;;;;;;;;;;20.58;30.69;97246.97;5017979;28;984;-76
2023/10/15 10:59:07;;;;;;;;;;;;;;;20.51;31.06;97239.53;4974465;28;1034;-76
2023/10/15 11:01:37;;;;;;;;;;;;;;;20.68;30.58;97243.00;4942511;28;1907;-76
2023/10/15 11:04:06;;;;;;;;;;;;;;;20.62;30.78;97236.31;4935989;29;986;-75
2023/10/15 11:06:36;;;;;;;;;;;;;;;20.44;30.83;97230.47;4936917;29;950;-76
2023/10/15 11:09:15;;;;;;;;;;;;;;;20.37;30.92;97236.38;4939778;29;1035;-77
2023/10/15 11:11:47;;;;;;;;;;;;;;;20.62;30.44;97233.50;4939506;29;993;-76
2023/10/15 11:14:12;;;;;;;;;;;;;;;20.62;30.59;97233.50;4939646;29;918;-76
2023/10/15 11:16:47;;;;;;;;;;;;;;;20.43;31.00;97228.91;4939746;29;1164;-75
2023/10/15 11:19:19;;;;;;;;;;;;;;;20.91;30.14;97229.69;4939283;29;984;-76
2023/10/15 11:21:44;;;;;;;;;;;;;;;20.85;29.82;97231.50;4939240;29;1981;-76
2023/10/15 11:24:10;;;;;;;;;;;;;;;20.64;30.27;97236.69;4939282;29;1084;-76
2023/10/15 11:26:36;;;;;;;;;;;;;;;20.73;30.23;97236.75;4939267;29;953;-76
2023/10/15 11:29:03;;;;;;;;;;;;;;;20.92;29.94;97245.38;4939072;29;1039;-75
2023/10/15 11:31:28;;;;;;;;;;;;;;;20.68;30.39;97240.16;4939623;29;1121;-75
2023/10/15 11:33:54;;;;;;;;;;;;;;;20.55;30.74;97239.41;4924210;28;928;-77
2023/10/15 11:36:20;;;;;;;;;;;;;;;20.83;30.11;97243.28;5002303;28;1069;-76
2023/10/15 11:38:46;;;;;;;;;;;;;;;20.64;30.16;97235.88;5019637;28;1073;-76
2023/10/15 11:41:13;;;;;;;;;;;;;;;20.50;30.76;97243.59;5004065;28;1902;-76
2023/10/15 11:43:39;;;;;;;;;;;;;;;20.56;30.41;97235.31;5020321;28;973;-76
2023/10/15 11:46:08;;;;;;;;;;;;;;;20.64;30.18;97235.88;5003582;28;1175;-76
2023/10/15 11:48:34;;;;;;;;;;;;;;;20.48;30.43;97239.66;5036506;28;950;-77
2023/10/15 11:50:59;;;;;;;;;;;;;;;20.41;30.66;97234.19;5003480;28;1092;-75
2023/10/15 11:53:25;;;;;;;;;;;;;;;20.86;30.17;97236.69;5003766;28;935;-76
2023/10/15 11:55:53;;;;;;;;;;;;;;;20.75;30.07;97237.09;5019746;28;1076;-76
2023/10/15 11:58:27;;;;;;;;;;;;;;;20.28;30.76;97225.78;5020126;28;931;-76
2023/10/15 12:00:52;;;;;;;;;;;;;;;20.61;30.39;97231.91;5004238;28;1918;-76
2023/10/15 12:03:20;;;;;;;;;;;;;;;20.68;30.19;97226.03;5003772;28;953;-76
2023/10/15 12:05:51;;;;;;;;;;;;;;;20.37;31.00;97222.25;5004808;28;931;-76
2023/10/15 12:08:20;;;;;;;;;;;;;;;20.51;30.45;97218.94;5038183;28;926;-76
2023/10/15 12:10:46;;;;;;;;;;;;;;;20.62;30.54;97216.53;5021004;28;932;-76
2023/10/15 12:13:12;;;;;;;;;;;;;;;20.66;30.47;97222.88;5020783;28;949;-76
2023/10/15 12:15:37;;;;;;;;;;;;;;;20.69;30.10;97221.16;5038620;28;930;-76
2023/10/15 12:18:03;;;;;;;;;;;;;;;20.46;30.76;97213.84;5020099;28;991;-76
2023/10/15 12:20:29;;;;;;;;;;;;;;;20.58;30.47;97209.47;5037943;28;1910;-77
2023/10/15 12:22:55;;;;;;;;;;;;;;;20.59;30.68;97211.81;5020639;28;925;-76
2023/10/15 12:25:20;;;;;;;;;;;;;;;20.58;30.57;97213.06;5020109;28;1466;-76
2023/10/15 12:27:46;;;;;;;;;;;;;;;20.73;30.28;97205.66;5020289;28;882;-76
2023/10/15 12:30:29;;;;;;;;;;;;;;;20.69;30.45;97210.66;5038334;28;951;-76
2023/10/15 12:32:55;;;;;;;;;;;;;;;20.73;30.20;97211.31;5022205;28;1013;-76
2023/10/15 12:35:21;;;;;;;;;;;;;;;20.70;30.09;97212.22;5003879;28;942;-77
2023/10/15 12:37:47;;;;;;;;;;;;;;;20.95;29.87;97199.22;5019644;28;1109;-76
2023/10/15 12:40:12;;;;;;;;;;;;;;;20.57;30.28;97207.84;4987834;28;1274;-76
2023/10/15 12:42:39;;;;;;;;;;;;;;;20.57;30.32;97214.28;5037868;28;1985;-76
2023/10/15 12:45:06;;;;;;;;;;;;;;;20.80;30.07;97205.41;5020216;28;884;-76
2023/10/15 12:47:32;;;;;;;;;;;;;;;20.96;29.71;97209.28;5020126;28;1421;-76
2023/10/15 12:49:58;;;;;;;;;;;;;;;20.89;29.71;97207.53;5015376;28;949;-75
2023/10/15 12:52:24;;;;;;;;;;;;;;;20.91;29.94;97210.66;5015243;28;1028;-76
2023/10/15 12:54:50;;;;;;;;;;;;;;;20.72;30.02;97209.72;4999691;28;1051;-76
2023/10/15 12:57:15;;;;;;;;;;;;;;;20.63;30.27;97208.88;5015658;28;1032;-76
2023/10/15 12:59:41;;;;;;;;;;;;;;;20.46;30.50;97211.84;5015605;28;1121;-76
2023/10/15 13:02:07;;;;;;;;;;;;;;;20.71;29.99;97202.50;4998907;28;1977;-77
2023/10/15 13:04:33;;;;;;;;;;;;;;;20.60;30.26;97212.59;5015077;28;1275;-76
2023/10/15 13:06:58;;;;;;;;;;;;;;;20.71;30.29;97202.50;4999150;28;982;-75
2023/10/15 13:09:32;;;;;;;;;;;;;;;20.80;29.94;97204.63;5014848;28;973;-76
2023/10/15 13:11:58;;;;;;;;;;;;;;;20.90;29.93;97197.00;5015161;28;1115;-76
2023/10/15 13:14:24;;;;;;;;;;;;;;;20.75;30.13;97191.84;4998503;28;917;-76
2023/10/15 13:16:50;;;;;;;;;;;;;;;20.64;30.33;97188.63;5014950;28;943;-75
2023/10/15 13:19:16;;;;;;;;;;;;;;;20.62;30.56;97193.94;4998671;28;1086;-75
2023/10/15 13:21:42;;;;;;;;;;;;;;;20.65;29.98;97181.72;5002317;28;1910;-76